createdAt,value
2019-01-15T00:00:23.664Z,99174.66
2019-01-15T00:02:52.253Z,99173.09
2019-01-15T00:05:20.539Z,99173.30
2019-01-15T00:07:48.834Z,99180.95
2019-01-15T00:10:17.345Z,99183.29
2019-01-15T00:12:45.667Z,99177.20
2019-01-15T00:15:14.115Z,99181.30
2019-01-15T00:17:42.664Z,99197.70
2019-01-15T00:20:11.114Z,99200.33
2019-01-15T00:22:39.580Z,99187.77
2019-01-15T00:25:08.001Z,99201.55
2019-01-15T00:27:36.268Z,99199.70
2019-01-15T00:30:05.626Z,99202.09
2019-01-15T00:32:34.072Z,99199.63
2019-01-15T00:35:02.455Z,99207.05
2019-01-15T00:37:30.961Z,99207.61
2019-01-15T00:39:59.499Z,99214.61
2019-01-15T00:42:27.933Z,99202.44
2019-01-15T00:44:56.436Z,99223.70
2019-01-15T00:47:24.997Z,99208.95
2019-01-15T00:49:53.375Z,99214.97
2019-01-15T00:52:21.664Z,99212.41
2019-01-15T00:54:50.205Z,99215.87
2019-01-15T00:57:18.489Z,99213.40
2019-01-15T00:59:46.769Z,99220.66
2019-01-15T01:02:15.155Z,99218.48
2019-01-15T01:04:43.652Z,99219.91
2019-01-15T01:07:11.928Z,99225.05
2019-01-15T01:09:40.259Z,99227.11
2019-01-15T01:12:08.606Z,99239.05
2019-01-15T01:14:37.025Z,99234.27
2019-01-15T01:17:05.358Z,99231.10
2019-01-15T01:19:33.741Z,99239.84
2019-01-15T01:22:02.211Z,99241.71
2019-01-15T01:24:30.538Z,99248.56
2019-01-15T01:26:58.950Z,99259.61
2019-01-15T01:29:27.250Z,99258.44
2019-01-15T01:31:55.560Z,99264.60
2019-01-15T01:34:23.858Z,99268.64
2019-01-15T01:36:52.311Z,99270.25
2019-01-15T01:39:20.735Z,99274.40
2019-01-15T01:41:49.017Z,99277.52
2019-01-15T01:44:17.344Z,99286.08
2019-01-15T01:46:45.728Z,99282.19
2019-01-15T01:49:14.057Z,99288.02
2019-01-15T01:51:42.321Z,99286.09
2019-01-15T01:54:10.723Z,99289.94
2019-01-15T01:56:39.096Z,99293.78
2019-01-15T01:59:07.431Z,99293.30
2019-01-15T02:01:35.752Z,99295.64
2019-01-15T02:04:04.015Z,99301.39
2019-01-15T02:06:32.253Z,99306.16
2019-01-15T02:09:00.683Z,99312.21
2019-01-15T02:11:28.940Z,99311.95
2019-01-15T02:13:57.244Z,99313.14
2019-01-15T02:16:25.579Z,99317.44
2019-01-15T02:18:53.935Z,99315.04
2019-01-15T02:21:22.190Z,99307.57
2019-01-15T02:23:50.498Z,99324.45
2019-01-15T02:26:18.764Z,99319.64
2019-01-15T02:28:47.027Z,99327.53
2019-01-15T02:31:15.401Z,99330.09
2019-01-15T02:33:43.700Z,99320.39
2019-01-15T02:36:11.965Z,99326.00
2019-01-15T02:38:40.403Z,99335.02
2019-01-15T02:41:08.680Z,99339.36
2019-01-15T02:43:36.947Z,99339.30
2019-01-15T02:46:05.387Z,99332.23
2019-01-15T02:48:33.644Z,99352.04
2019-01-15T02:51:01.955Z,99354.20
2019-01-15T02:53:30.293Z,99349.34
2019-01-15T02:55:58.576Z,99346.42
2019-01-15T02:58:26.853Z,99347.63
2019-01-15T03:00:55.160Z,99356.94
2019-01-15T03:03:23.417Z,99360.30
2019-01-15T03:05:52.059Z,99364.19
2019-01-15T03:08:20.561Z,99364.98
2019-01-15T03:10:48.829Z,99362.95
2019-01-15T03:13:17.071Z,99367.77
2019-01-15T03:15:45.391Z,99378.87
2019-01-15T03:18:14.036Z,99375.20
2019-01-15T03:20:42.427Z,99363.20
2019-01-15T03:23:10.783Z,99389.00
2019-01-15T03:25:39.157Z,99385.63
2019-01-15T03:28:07.567Z,99389.31
2019-01-15T03:30:35.889Z,99382.89
2019-01-15T03:33:04.173Z,99382.50
2019-01-15T03:35:32.444Z,99388.41
2019-01-15T03:38:00.872Z,99389.80
2019-01-15T03:40:29.293Z,99388.60
2019-01-15T03:43:03.317Z,99396.78
2019-01-15T03:45:27.627Z,99403.36
2019-01-15T03:47:55.994Z,99399.20
2019-01-15T03:50:24.285Z,99408.01
2019-01-15T03:52:52.603Z,99416.95
2019-01-15T03:55:20.923Z,99420.21
2019-01-15T03:57:49.185Z,99418.76
2019-01-15T04:00:21.364Z,99423.41
2019-01-15T04:02:49.756Z,99424.20
2019-01-15T04:05:18.091Z,99427.16
2019-01-15T04:07:47.786Z,99433.27
2019-01-15T04:10:16.021Z,99424.95
2019-01-15T04:12:44.404Z,99433.80
2019-01-15T04:15:12.753Z,99439.51
2019-01-15T04:17:40.988Z,99439.99
2019-01-15T04:20:10.506Z,99449.90
2019-01-15T04:22:38.985Z,99452.82
2019-01-15T04:25:07.739Z,99449.05
2019-01-15T04:27:36.075Z,99449.31
2019-01-15T04:30:05.565Z,99452.77
2019-01-15T04:32:33.855Z,99461.27
2019-01-15T04:35:02.114Z,99461.31
2019-01-15T04:37:30.470Z,99459.98
2019-01-15T04:39:58.746Z,99469.84
2019-01-15T04:42:27.077Z,99469.98
2019-01-15T04:44:55.373Z,99476.57
2019-01-15T04:47:23.663Z,99483.87
2019-01-15T04:49:51.937Z,99482.02
2019-01-15T04:52:25.350Z,99493.56
2019-01-15T04:54:58.452Z,99491.20
2019-01-15T04:57:36.029Z,99490.95
2019-01-15T05:00:07.311Z,99492.36
2019-01-15T05:02:40.333Z,99505.67
2019-01-15T05:05:19.488Z,99507.88
2019-01-15T05:07:52.311Z,99509.17
2019-01-15T05:10:26.897Z,99507.22
2019-01-15T05:12:56.642Z,99504.48
2019-01-15T05:18:25.013Z,99511.95
2019-01-15T05:20:58.908Z,99507.89
2019-01-15T05:23:38.070Z,99515.27
2019-01-15T05:26:16.917Z,99512.39
2019-01-15T05:29:03.569Z,99513.19
2019-01-15T05:31:39.053Z,99516.89
2019-01-15T05:34:12.815Z,99520.33
2019-01-15T05:36:44.191Z,99532.42
2019-01-15T05:39:24.996Z,99533.52
2019-01-15T05:42:12.698Z,99532.80
2019-01-15T05:44:54.040Z,99538.16
2019-01-15T05:47:36.520Z,99531.88
2019-01-15T05:50:13.969Z,99549.42
2019-01-15T05:52:47.150Z,99548.45
2019-01-15T05:55:17.757Z,99547.83
2019-01-15T05:57:48.545Z,99554.52
2019-01-15T06:00:18.562Z,99550.34
2019-01-15T06:03:01.193Z,99550.87
2019-01-15T06:05:35.451Z,99543.94
2019-01-15T06:08:06.508Z,99550.79
2019-01-15T06:11:01.204Z,99547.34
2019-01-15T06:13:34.383Z,99548.86
2019-01-15T06:16:10.127Z,99552.15
2019-01-15T06:18:46.230Z,99547.98
2019-01-15T06:21:15.334Z,99546.97
2019-01-15T06:23:49.413Z,99544.52
2019-01-15T06:26:23.313Z,99548.45
2019-01-15T06:28:55.120Z,99555.54
2019-01-15T06:31:26.316Z,99556.81
2019-01-15T06:33:55.279Z,99560.84
2019-01-15T06:36:23.918Z,99546.41
2019-01-15T06:38:58.811Z,99549.69
2019-01-15T06:41:32.385Z,99560.09
2019-01-15T06:44:05.162Z,99559.28
2019-01-15T06:46:38.229Z,99570.30
2019-01-15T06:49:11.935Z,99575.06
2019-01-15T06:51:41.403Z,99584.58
2019-01-15T06:54:10.902Z,99594.02
2019-01-15T06:56:41.201Z,99602.41
2019-01-15T06:59:09.620Z,99610.41
2019-01-15T07:01:40.433Z,99618.71
2019-01-15T07:04:08.925Z,99629.30
2019-01-15T07:06:38.702Z,99636.34
2019-01-15T07:09:08.558Z,99636.92
2019-01-15T07:11:37.094Z,99644.48
2019-01-15T07:14:05.608Z,99646.27
2019-01-15T07:16:33.932Z,99649.53
2019-01-15T07:19:02.398Z,99645.42
2019-01-15T07:21:30.698Z,99654.30
2019-01-15T07:23:59.024Z,99654.35
2019-01-15T07:26:27.439Z,99651.63
2019-01-15T07:28:55.716Z,99656.07
2019-01-15T07:31:24.008Z,99657.20
2019-01-15T07:33:52.536Z,99656.31
2019-01-15T07:36:20.920Z,99650.22
2019-01-15T07:38:49.234Z,99655.30
2019-01-15T07:41:17.709Z,99657.37
2019-01-15T07:43:46.040Z,99653.21
2019-01-15T07:46:14.303Z,99653.65
2019-01-15T07:48:42.732Z,99651.69
2019-01-15T07:51:12.567Z,99648.80
2019-01-15T07:53:40.907Z,99658.13
2019-01-15T07:56:09.219Z,99658.06
2019-01-15T07:58:37.507Z,99655.56
2019-01-15T08:01:07.414Z,99657.17
2019-01-15T08:03:35.948Z,99668.16
2019-01-15T08:06:04.195Z,99661.16
2019-01-15T08:08:32.477Z,99660.98
2019-01-15T08:11:00.809Z,99664.71
2019-01-15T08:13:29.052Z,99668.17
2019-01-15T08:15:57.291Z,99669.73
2019-01-15T08:18:25.679Z,99664.39
2019-01-15T08:20:53.940Z,99664.77
2019-01-15T08:23:22.187Z,99667.63
2019-01-15T08:25:50.547Z,99657.17
2019-01-15T08:28:18.750Z,99660.22
2019-01-15T08:30:46.979Z,99659.02
2019-01-15T08:33:15.357Z,99663.91
2019-01-15T08:35:43.605Z,99666.62
2019-01-15T08:38:11.838Z,99658.59
2019-01-15T08:40:40.361Z,99656.10
2019-01-15T08:43:08.597Z,99643.09
2019-01-15T08:45:36.859Z,99642.54
2019-01-15T08:48:16.535Z,99646.14
2019-01-15T08:50:44.861Z,99636.60
2019-01-15T08:53:14.535Z,99631.09
2019-01-15T08:55:42.828Z,99632.08
2019-01-15T08:58:11.045Z,99631.02
2019-01-15T09:00:39.399Z,99631.07
2019-01-15T09:03:07.815Z,99627.90
2019-01-15T09:05:36.071Z,99628.58
2019-01-15T09:08:04.301Z,99627.41
2019-01-15T09:10:32.688Z,99634.37
2019-01-15T09:13:00.929Z,99632.80
2019-01-15T09:15:29.177Z,99626.75
2019-01-15T09:17:57.461Z,99622.50
2019-01-15T09:20:25.703Z,99625.52
2019-01-15T09:22:53.969Z,99623.86
2019-01-15T09:25:22.284Z,99627.41
2019-01-15T09:27:50.516Z,99632.98
2019-01-15T09:30:19.685Z,99628.98
2019-01-15T09:32:48.003Z,99623.54
2019-01-15T09:35:16.457Z,99619.21
2019-01-15T09:37:45.524Z,99622.56
2019-01-15T09:40:15.151Z,99625.41
2019-01-15T09:42:43.503Z,99628.00
2019-01-15T09:45:15.042Z,99621.80
2019-01-15T09:47:50.486Z,99623.59
2019-01-15T09:50:19.660Z,99620.89
2019-01-15T09:52:48.020Z,99624.92
2019-01-15T09:55:16.301Z,99623.67
2019-01-15T09:57:44.558Z,99611.19
2019-01-15T10:00:12.891Z,99611.04
2019-01-15T10:02:41.246Z,99604.95
2019-01-15T10:05:09.513Z,99608.83
2019-01-15T10:07:37.749Z,99608.36
2019-01-15T10:10:06.935Z,99599.64
2019-01-15T10:12:35.183Z,99596.84
2019-01-15T10:15:03.443Z,99600.39
2019-01-15T10:17:31.757Z,99602.77
2019-01-15T10:20:00.005Z,99598.73
2019-01-15T10:22:28.263Z,99596.27
2019-01-15T10:24:56.689Z,99597.62
2019-01-15T10:27:25.152Z,99598.49
2019-01-15T10:29:59.127Z,99597.24
2019-01-15T10:32:56.428Z,99593.18
2019-01-15T10:35:36.873Z,99592.37
2019-01-15T10:38:05.175Z,99584.53
2019-01-15T10:40:33.443Z,99576.95
2019-01-15T10:43:01.687Z,99578.51
2019-01-15T10:45:29.987Z,99578.81
2019-01-15T10:47:58.601Z,99574.64
2019-01-15T10:50:26.852Z,99566.52
2019-01-15T10:52:55.219Z,99564.52
2019-01-15T10:55:23.495Z,99561.99
2019-01-15T10:57:51.731Z,99558.25
2019-01-15T11:00:20.049Z,99556.88
2019-01-15T11:02:48.290Z,99551.16
2019-01-15T11:05:16.511Z,99565.92
2019-01-15T11:07:44.911Z,99559.27
2019-01-15T11:10:13.891Z,99557.99
2019-01-15T11:12:42.184Z,99561.43
2019-01-15T11:15:10.542Z,99563.23
2019-01-15T11:17:38.767Z,99570.82
2019-01-15T11:20:07.963Z,99572.45
2019-01-15T11:22:36.361Z,99568.08
2019-01-15T11:25:05.455Z,99568.33
2019-01-15T11:27:33.696Z,99558.69
2019-01-15T11:30:02.092Z,99557.38
2019-01-15T11:32:30.352Z,99551.78
2019-01-15T11:34:58.592Z,99551.87
2019-01-15T11:37:26.976Z,99555.59
2019-01-15T11:39:55.213Z,99550.63
2019-01-15T11:42:23.436Z,99554.06
2019-01-15T11:44:51.736Z,99553.97
2019-01-15T11:47:19.979Z,99557.50
2019-01-15T11:49:48.211Z,99557.38
2019-01-15T11:52:16.591Z,99558.12
2019-01-15T11:54:44.941Z,99556.22
2019-01-15T11:57:13.174Z,99552.84
2019-01-15T11:59:41.579Z,99558.84
2019-01-15T12:02:22.010Z,99560.18
2019-01-15T12:04:58.284Z,99558.58
2019-01-15T12:07:50.703Z,99555.44
2019-01-15T12:10:31.533Z,99548.98
2019-01-15T12:13:21.463Z,99527.91
2019-01-15T12:16:17.143Z,99525.34
2019-01-15T12:19:02.712Z,99524.12
2019-01-15T12:21:52.729Z,99518.44
2019-01-15T12:24:38.427Z,99520.66
2019-01-15T12:27:23.986Z,99516.16
2019-01-15T12:30:11.810Z,99514.56
2019-01-15T12:33:12.216Z,99509.78
2019-01-15T12:36:08.116Z,99512.04
2019-01-15T12:39:13.625Z,99500.31
2019-01-15T12:42:02.167Z,99496.49
2019-01-15T12:45:03.347Z,99503.66
2019-01-15T12:47:49.147Z,99500.83
2019-01-15T12:50:26.995Z,99487.85
2019-01-15T12:53:23.436Z,99490.70
2019-01-15T12:56:13.496Z,99482.73
2019-01-15T12:59:00.714Z,99472.85
2019-01-15T13:02:02.903Z,99466.73
2019-01-15T13:04:52.661Z,99466.75
2019-01-15T13:07:49.724Z,99475.31
2019-01-15T13:10:37.821Z,99470.92
2019-01-15T13:13:22.087Z,99474.53
2019-01-15T13:16:09.299Z,99476.91
2019-01-15T13:19:00.896Z,99478.89
2019-01-15T13:21:39.548Z,99475.32
2019-01-15T13:24:32.637Z,99472.97
2019-01-15T13:27:25.576Z,99477.27
2019-01-15T13:30:21.719Z,99478.62
2019-01-15T13:33:07.715Z,99480.06
2019-01-15T13:35:53.384Z,99487.24
2019-01-15T13:38:31.797Z,99485.77
2019-01-15T13:41:21.819Z,99483.14
2019-01-15T13:44:11.988Z,99488.58
2019-01-15T13:46:59.383Z,99491.11
2019-01-15T13:49:38.819Z,99482.33
2019-01-15T13:52:21.545Z,99478.52
2019-01-15T13:55:04.179Z,99468.95
2019-01-15T13:57:51.504Z,99457.10
2019-01-15T14:00:44.963Z,99451.38
2019-01-15T14:03:24.903Z,99442.95
2019-01-15T14:06:20.993Z,99436.29
2019-01-15T14:09:14.107Z,99432.20
2019-01-15T14:11:59.796Z,99427.31
2019-01-15T14:14:52.875Z,99423.03
2019-01-15T14:17:34.459Z,99424.86
2019-01-15T14:20:39.660Z,99416.19
2019-01-15T14:23:19.820Z,99418.97
2019-01-15T14:25:59.550Z,99409.53
2019-01-15T14:28:49.707Z,99417.80
2019-01-15T14:31:55.195Z,99420.14
2019-01-15T14:34:40.803Z,99420.72
2019-01-15T14:37:28.100Z,99420.80
2019-01-15T14:40:15.284Z,99421.16
2019-01-15T14:43:01.951Z,99421.89
2019-01-15T14:45:47.649Z,99423.09
2019-01-15T14:51:15.567Z,99436.05
2019-01-15T14:54:01.268Z,99432.83
2019-01-15T14:56:46.803Z,99435.83
2019-01-15T14:59:32.472Z,99435.14
2019-01-15T15:02:19.016Z,99441.42
2019-01-15T15:05:04.713Z,99436.20
2019-01-15T15:08:06.906Z,99443.26
2019-01-15T15:10:48.322Z,99434.96
2019-01-15T15:13:27.956Z,99434.51
2019-01-15T15:16:13.791Z,99438.41
2019-01-15T15:19:12.831Z,99435.53
2019-01-15T15:22:02.973Z,99435.89
2019-01-15T15:24:48.651Z,99435.01
2019-01-15T15:27:34.701Z,99424.59
2019-01-15T15:30:24.297Z,99425.39
2019-01-15T15:33:20.792Z,99428.77
2019-01-15T15:36:11.117Z,99422.08
2019-01-15T15:39:04.417Z,99419.45
2019-01-15T15:41:50.545Z,99422.77
2019-01-15T15:44:28.316Z,99413.09
2019-01-15T15:47:23.025Z,99412.21
2019-01-15T15:50:23.345Z,99414.16
2019-01-15T15:53:22.599Z,99413.28
2019-01-15T15:56:10.006Z,99418.44
2019-01-15T15:59:02.961Z,99430.89
2019-01-15T16:01:51.029Z,99423.94
2019-01-15T16:04:56.311Z,99427.97
2019-01-15T16:07:39.838Z,99434.61
2019-01-15T16:10:44.210Z,99436.19
2019-01-15T16:13:52.021Z,99435.45
2019-01-15T16:16:57.399Z,99422.37
2019-01-15T16:19:38.892Z,99423.30
2019-01-15T16:22:35.881Z,99427.23
2019-01-15T16:25:39.250Z,99423.21
2019-01-15T16:28:29.404Z,99425.66
2019-01-15T16:31:15.739Z,99423.02
2019-01-15T16:34:15.972Z,99426.17
2019-01-15T16:37:12.787Z,99426.17
2019-01-15T16:40:27.239Z,99423.30
2019-01-15T16:43:21.669Z,99419.86
2019-01-15T16:46:12.899Z,99422.91
2019-01-15T16:48:56.227Z,99420.67
2019-01-15T16:51:55.726Z,99418.55
2019-01-15T16:54:37.810Z,99422.52
2019-01-15T16:57:26.468Z,99420.95
2019-01-15T17:00:15.750Z,99414.87
2019-01-15T17:03:06.215Z,99423.84
2019-01-15T17:05:54.620Z,99425.72
2019-01-15T17:08:57.197Z,99426.71
2019-01-15T17:11:40.360Z,99426.06
2019-01-15T17:14:32.278Z,99424.81
2019-01-15T17:17:23.145Z,99422.84
2019-01-15T17:20:10.463Z,99422.52
2019-01-15T17:23:07.151Z,99423.58
2019-01-15T17:25:57.567Z,99430.37
2019-01-15T17:28:43.245Z,99427.38
2019-01-15T17:31:28.074Z,99430.73
2019-01-15T17:34:06.236Z,99428.48
2019-01-15T17:37:00.823Z,99424.34
2019-01-15T17:39:46.660Z,99420.33
2019-01-15T17:42:44.624Z,99419.80
2019-01-15T17:45:30.393Z,99422.19
2019-01-15T17:48:23.465Z,99424.30
2019-01-15T17:51:28.916Z,99425.13
2019-01-15T17:54:22.147Z,99424.86
2019-01-15T17:57:27.483Z,99429.84
2019-01-15T18:00:24.527Z,99434.52
2019-01-15T18:03:17.636Z,99428.51
2019-01-15T18:06:03.425Z,99432.27
2019-01-15T18:08:53.319Z,99435.97
2019-01-15T18:11:47.058Z,99431.48
2019-01-15T18:14:37.052Z,99436.70
2019-01-15T18:17:12.584Z,99435.95
2019-01-15T18:20:02.712Z,99449.20
2019-01-15T18:23:04.785Z,99448.70
2019-01-15T18:25:51.049Z,99443.84
2019-01-15T18:28:43.961Z,99452.22
2019-01-15T18:31:37.447Z,99447.69
2019-01-15T18:34:24.724Z,99449.56
2019-01-15T18:37:26.827Z,99446.56
2019-01-15T18:40:14.754Z,99456.79
2019-01-15T18:43:00.988Z,99456.06
2019-01-15T18:45:44.584Z,99460.87
2019-01-15T18:48:36.975Z,99455.91
2019-01-15T18:51:23.433Z,99449.97
2019-01-15T18:54:25.732Z,99459.75
2019-01-15T18:57:04.106Z,99465.38
2019-01-15T18:59:56.412Z,99463.72
2019-01-15T19:02:45.788Z,99473.57
2019-01-15T19:05:29.575Z,99480.42
2019-01-15T19:08:23.173Z,99484.64
2019-01-15T19:11:09.881Z,99484.66
2019-01-15T19:14:04.271Z,99494.49
2019-01-15T19:17:07.693Z,99494.10
2019-01-15T19:20:28.507Z,99492.52
2019-01-15T19:50:50.465Z,99522.61
2019-01-15T19:53:36.566Z,99531.16
2019-01-15T19:56:26.611Z,99526.47
2019-01-15T19:59:12.288Z,99528.89
2019-01-15T20:01:59.670Z,99540.72
2019-01-15T20:04:49.559Z,99545.33
2019-01-15T20:07:45.903Z,99555.72
2019-01-15T20:10:39.107Z,99563.82
2019-01-15T20:13:15.840Z,99560.88
2019-01-15T20:16:01.380Z,99560.42
2019-01-15T20:18:54.452Z,99559.67
2019-01-15T20:21:45.784Z,99558.77
2019-01-15T20:24:31.488Z,99557.89
2019-01-15T20:27:17.057Z,99551.06
2019-01-15T20:30:02.820Z,99550.58
2019-01-15T20:32:49.551Z,99561.03
2019-01-15T20:35:37.645Z,99561.76
2019-01-15T20:38:31.431Z,99567.30
2019-01-15T20:41:27.826Z,99576.29
2019-01-15T20:44:09.276Z,99576.78
2019-01-15T20:47:07.000Z,99585.44
2019-01-15T20:49:57.031Z,99586.64
2019-01-15T20:52:56.277Z,99589.89
2019-01-15T20:55:43.304Z,99599.55
2019-01-15T20:58:36.583Z,99597.83
2019-01-15T21:01:28.946Z,99602.52
2019-01-15T21:04:17.278Z,99608.41
2019-01-15T21:07:05.556Z,99604.19
2019-01-15T22:03:06.144Z,99666.69
2019-01-15T22:05:56.349Z,99667.53
2019-01-15T22:08:48.481Z,99671.39
2019-01-15T22:11:34.100Z,99665.86
2019-01-15T22:14:19.685Z,99671.44
2019-01-15T22:17:05.940Z,99677.75
2019-01-15T22:19:53.899Z,99682.86
2019-01-15T22:22:41.212Z,99685.39
2019-01-15T22:25:39.795Z,99693.06
2019-01-15T22:28:34.096Z,99694.72
2019-01-15T22:31:23.020Z,99692.18
2019-01-15T22:34:28.500Z,99703.68
2019-01-15T22:37:18.519Z,99708.34
2019-01-15T22:40:20.535Z,99713.05
2019-01-15T22:43:10.780Z,99714.31
2019-01-15T22:46:01.002Z,99713.91
2019-01-15T22:48:57.084Z,99716.05
2019-01-15T22:51:42.752Z,99709.29
2019-01-15T22:54:24.063Z,99712.66
2019-01-15T22:57:11.261Z,99712.23
2019-01-15T23:00:13.369Z,99721.98
2019-01-15T23:02:57.539Z,99722.43
2019-01-15T23:05:43.216Z,99727.09
2019-01-15T23:08:29.371Z,99723.27
2019-01-15T23:11:26.819Z,99731.33
2019-01-15T23:14:13.995Z,99734.72
2019-01-15T23:17:03.988Z,99729.23
2019-01-15T23:19:45.304Z,99724.13
2019-01-15T23:22:47.619Z,99723.70
2019-01-15T23:25:28.965Z,99725.83
2019-01-15T23:28:21.975Z,99727.52
2019-01-15T23:31:09.181Z,99725.83
2019-01-15T23:33:59.199Z,99730.91
2019-01-15T23:36:46.368Z,99724.12
2019-01-15T23:39:39.435Z,99728.78
2019-01-15T23:42:38.545Z,99738.12
2019-01-15T23:45:18.720Z,99742.77
2019-01-15T23:48:09.793Z,99741.52
2019-01-15T23:50:54.923Z,99742.34
2019-01-15T23:53:34.744Z,99744.44
2019-01-15T23:56:20.564Z,99746.14
2019-01-15T23:59:14.187Z,99744.48
